Time;durP1;ratioP1;P1;durP2;ratioP2;P2;SDS_P1;SDS_P2;PMS_P1;PMS_P2;Temp;Humidity;BMP_temperature;BMP_pressure;BME280_temperature;BME280_humidity;BME280_pressure;Samples;Min_cycle;Max_cycle;Signal;HPM_P1;HPM_P2
2022/10/07 00:01:28;;;;;;;8.73;4.10;;;10.60;1.00;;;;;;5043341;28;20181;-61
2022/10/07 00:03:53;;;;;;;8.60;4.67;;;10.60;1.00;;;;;;5044357;28;20595;-60
2022/10/07 00:06:21;;;;;;;4.63;4.20;;;10.60;1.00;;;;;;5049832;28;20190;-59
2022/10/07 00:08:49;;;;;;;4.77;3.73;;;10.60;1.00;;;;;;5050095;28;20299;-59
2022/10/07 00:11:18;;;;;;;5.30;4.13;;;10.60;1.00;;;;;;5053797;28;21101;-59
2022/10/07 00:13:45;;;;;;;6.70;4.00;;;10.50;1.00;;;;;;5046053;28;20828;-58
2022/10/07 00:16:25;;;;;;;7.87;4.00;;;10.40;1.00;;;;;;5049401;28;20445;-60
2022/10/07 00:18:55;;;;;;;5.23;3.87;;;10.40;1.00;;;;;;5050660;28;20433;-60
2022/10/07 00:21:21;;;;;;;10.30;4.70;;;10.40;1.00;;;;;;5049204;28;20429;-59
2022/10/07 00:23:47;;;;;;;5.20;4.70;;;10.50;1.00;;;;;;5047340;28;20477;-60
2022/10/07 00:26:16;;;;;;;5.77;4.20;;;10.50;1.00;;;;;;5046432;28;20182;-59
2022/10/07 00:28:41;;;;;;;5.33;3.47;;;10.40;1.00;;;;;;5044731;28;20455;-59
2022/10/07 00:31:18;;;;;;;5.97;4.33;;;10.30;1.00;;;;;;5048084;28;20467;-60
2022/10/07 00:33:44;;;;;;;6.33;4.17;;;10.30;1.00;;;;;;5040533;28;20803;-60
2022/10/07 00:36:16;;;;;;;9.40;4.33;;;10.30;1.00;;;;;;5040153;28;20422;-57
2022/10/07 00:38:42;;;;;;;6.93;4.40;;;10.30;1.00;;;;;;5040842;28;21029;-59
2022/10/07 00:41:14;;;;;;;5.17;4.37;;;10.30;1.00;;;;;;5048395;28;20470;-59
2022/10/07 00:43:40;;;;;;;5.00;4.00;;;10.30;1.00;;;;;;5044680;28;20227;-59
2022/10/07 00:46:28;;;;;;;4.30;3.90;;;10.20;1.00;;;;;;5045728;28;20918;-59
2022/10/07 00:48:56;;;;;;;5.77;4.40;;;10.20;1.00;;;;;;5042883;28;20218;-60
2022/10/07 00:51:22;;;;;;;4.70;3.50;;;10.20;1.00;;;;;;5041835;28;20451;-59
2022/10/07 00:53:52;;;;;;;5.10;4.60;;;10.20;1.00;;;;;;5045786;28;20424;-61
2022/10/07 00:56:18;;;;;;;5.60;4.30;;;10.20;1.00;;;;;;5050091;28;20421;-60
2022/10/07 00:58:46;;;;;;;7.70;5.10;;;10.20;1.00;;;;;;5045226;28;20858;-59
2022/10/07 01:01:12;;;;;;;10.77;4.27;;;10.10;1.00;;;;;;5045671;28;20482;-59
2022/10/07 01:03:38;;;;;;;7.20;4.80;;;10.10;1.00;;;;;;5048281;28;20916;-59
2022/10/07 01:06:05;;;;;;;11.53;4.80;;;10.10;1.00;;;;;;5048508;28;20518;-60
2022/10/07 01:08:31;;;;;;;8.70;5.43;;;10.10;1.00;;;;;;5044605;28;20213;-60
2022/10/07 01:11:31;;;;;;;7.83;4.70;;;10.10;1.00;;;;;;5046487;28;20471;-59
2022/10/07 01:14:11;;;;;;;5.20;4.70;;;10.10;1.00;;;;;;5049784;28;20970;-59
2022/10/07 01:16:43;;;;;;;6.90;4.67;;;10.00;1.00;;;;;;5045318;28;20445;-60
2022/10/07 01:19:46;;;;;;;4.37;3.40;;;10.00;1.00;;;;;;5046056;28;20508;-60
2022/10/07 01:22:45;;;;;;;4.43;4.03;;;10.10;1.00;;;;;;5046342;28;20997;-59
2022/10/07 01:25:31;;;;;;;7.43;4.43;;;10.00;1.00;;;;;;5048562;28;20930;-60
2022/10/07 01:28:14;;;;;;;9.70;4.53;;;10.00;1.00;;;;;;5045193;28;20457;-59
2022/10/07 01:30:45;;;;;;;6.77;4.30;;;9.90;1.00;;;;;;5048961;28;20473;-60
2022/10/07 01:33:17;;;;;;;6.70;3.80;;;9.90;1.00;;;;;;5045187;28;20455;-59
2022/10/07 01:35:45;;;;;;;5.90;3.23;;;9.90;1.00;;;;;;5044188;28;20416;-60
2022/10/07 01:38:15;;;;;;;9.40;4.23;;;9.90;1.00;;;;;;5048702;28;20444;-59
2022/10/07 01:40:55;;;;;;;5.40;4.40;;;9.90;1.00;;;;;;5046297;28;20440;-60
2022/10/07 01:43:22;;;;;;;8.23;4.27;;;9.80;1.00;;;;;;5046628;28;20796;-60
2022/10/07 01:45:51;;;;;;;6.73;4.10;;;9.80;1.00;;;;;;5046220;28;20488;-59
2022/10/07 01:48:16;;;;;;;5.47;4.50;;;9.80;1.00;;;;;;5047877;28;20446;-60
2022/10/07 01:50:43;;;;;;;5.60;4.30;;;9.80;1.00;;;;;;5044599;28;20477;-59
2022/10/07 01:53:48;;;;;;;7.33;4.50;;;9.70;1.00;;;;;;5045583;28;20267;-59
2022/10/07 01:56:31;;;;;;;5.40;4.87;;;9.80;1.00;;;;;;5043578;28;20440;-60
2022/10/07 01:59:34;;;;;;;8.00;4.50;;;9.80;1.00;;;;;;5044429;28;20417;-59
2022/10/07 02:02:20;;;;;;;7.10;4.00;;;9.70;1.00;;;;;;5038232;28;20798;-59
2022/10/07 02:05:08;;;;;;;7.40;5.37;;;9.70;1.00;;;;;;5045518;28;21065;-59
2022/10/07 02:07:54;;;;;;;5.40;4.67;;;9.70;1.00;;;;;;5042122;28;20424;-58
2022/10/07 02:10:23;;;;;;;7.83;5.10;;;9.60;1.00;;;;;;5041373;28;20559;-59
2022/10/07 02:12:56;;;;;;;6.07;4.60;;;9.60;1.00;;;;;;5047683;28;20948;-59
2022/10/07 02:15:32;;;;;;;5.10;3.90;;;9.70;1.00;;;;;;5044476;28;20491;-59
2022/10/07 02:18:01;;;;;;;7.03;4.70;;;9.60;1.00;;;;;;5048997;28;20852;-60
2022/10/07 02:20:31;;;;;;;9.50;4.47;;;9.50;1.00;;;;;;5047198;28;21146;-59
2022/10/07 02:23:01;;;;;;;6.33;4.30;;;9.60;1.00;;;;;;5045626;28;20574;-57
2022/10/07 02:25:32;;;;;;;5.80;4.40;;;9.60;1.00;;;;;;5046566;28;20980;-59
2022/10/07 02:28:02;;;;;;;4.80;4.30;;;9.60;1.00;;;;;;5045278;28;20517;-60
2022/10/07 02:30:28;;;;;;;9.13;5.00;;;9.60;1.00;;;;;;5047634;28;20470;-59
2022/10/07 02:32:57;;;;;;;6.00;4.40;;;9.50;1.00;;;;;;5052070;28;20476;-60
2022/10/07 02:35:30;;;;;;;5.97;4.37;;;9.50;1.00;;;;;;5047165;28;20424;-59
2022/10/07 02:37:58;;;;;;;5.63;4.30;;;9.50;1.00;;;;;;5049509;28;20424;-59
2022/10/07 02:40:31;;;;;;;7.00;4.10;;;9.50;1.00;;;;;;5049399;28;20520;-60
2022/10/07 02:43:07;;;;;;;7.53;4.40;;;9.50;1.00;;;;;;5049493;28;20468;-59
2022/10/07 02:46:07;;;;;;;7.53;4.47;;;9.50;1.00;;;;;;5045780;28;20990;-59
2022/10/07 02:48:42;;;;;;;6.13;4.00;;;9.40;1.00;;;;;;5047020;28;20942;-60
2022/10/07 02:51:17;;;;;;;5.83;4.87;;;9.40;1.00;;;;;;5053207;28;20507;-58
2022/10/07 02:53:44;;;;;;;8.20;3.97;;;9.40;1.00;;;;;;5047601;28;20420;-60
2022/10/07 02:56:10;;;;;;;6.93;4.30;;;9.40;1.00;;;;;;5048375;28;20439;-59
2022/10/07 02:58:36;;;;;;;7.97;4.40;;;9.40;1.00;;;;;;5049722;28;20460;-59
2022/10/07 03:01:04;;;;;;;10.90;3.87;;;9.40;1.00;;;;;;5054777;28;20483;-60
2022/10/07 03:03:30;;;;;;;5.53;4.37;;;9.30;1.00;;;;;;5048370;28;20962;-59
2022/10/07 03:05:57;;;;;;;5.47;4.43;;;9.30;1.00;;;;;;5050159;28;20447;-59
2022/10/07 03:08:23;;;;;;;6.77;4.00;;;9.30;1.00;;;;;;5048154;28;20218;-60
2022/10/07 03:10:48;;;;;;;7.23;4.63;;;9.30;1.00;;;;;;5045924;28;20479;-59
2022/10/07 03:13:14;;;;;;;5.37;4.13;;;9.20;1.00;;;;;;5049969;28;20192;-59
2022/10/07 03:15:40;;;;;;;7.33;5.07;;;9.20;1.00;;;;;;5045012;28;20194;-59
2022/10/07 03:18:06;;;;;;;7.13;4.77;;;9.20;1.00;;;;;;5046995;28;20309;-60
2022/10/07 03:20:32;;;;;;;4.70;3.83;;;9.20;1.00;;;;;;5047063;28;20528;-59
2022/10/07 03:22:58;;;;;;;6.80;4.40;;;9.20;1.00;;;;;;5049573;28;20193;-59
2022/10/07 03:25:25;;;;;;;5.50;4.00;;;9.20;1.00;;;;;;5050521;28;20688;-59
2022/10/07 03:27:53;;;;;;;6.50;4.43;;;9.20;1.00;;;;;;5051394;28;20457;-59
2022/10/07 03:30:21;;;;;;;4.90;4.40;;;9.20;1.00;;;;;;5045503;28;20825;-59
2022/10/07 03:32:48;;;;;;;5.70;4.83;;;9.20;1.00;;;;;;5050442;28;20528;-58
2022/10/07 03:35:14;;;;;;;6.80;4.20;;;9.10;1.00;;;;;;5047259;28;20450;-60
2022/10/07 03:37:40;;;;;;;6.17;4.30;;;9.10;1.00;;;;;;5052728;28;20447;-59
2022/10/07 03:40:06;;;;;;;8.57;4.80;;;9.20;1.00;;;;;;5046486;28;20489;-59
2022/10/07 03:42:32;;;;;;;5.23;4.40;;;9.20;1.00;;;;;;5049346;28;20543;-59
2022/10/07 03:44:58;;;;;;;5.50;4.53;;;9.20;1.00;;;;;;5048431;28;20983;-60
2022/10/07 03:47:23;;;;;;;5.30;4.80;;;9.10;1.00;;;;;;5047828;28;20246;-60
2022/10/07 03:49:49;;;;;;;6.70;4.80;;;9.10;1.00;;;;;;5046713;28;20350;-59
2022/10/07 03:52:14;;;;;;;10.20;5.33;;;9.10;1.00;;;;;;5042742;28;20689;-60
2022/10/07 03:54:40;;;;;;;10.40;4.90;;;9.10;1.00;;;;;;5044519;28;20192;-59
2022/10/07 03:57:48;;;;;;;5.50;4.53;;;9.10;1.00;;;;;;5040140;28;20192;-59
2022/10/07 03:59:54;;;;;;;6.73;4.03;;;9.10;1.00;;;;;;5044136;28;20271;-59
2022/10/07 04:02:22;;;;;;;11.87;4.70;;;9.10;1.00;;;;;;5053248;28;20408;-60
2022/10/07 04:04:51;;;;;;;5.87;4.00;;;9.10;1.00;;;;;;5061582;28;20186;-58
2022/10/07 04:07:18;;;;;;;4.60;4.20;;;9.10;1.00;;;;;;5058232;28;20465;-59
2022/10/07 04:09:43;;;;;;;5.10;4.60;;;9.10;1.00;;;;;;5052706;28;20573;-57
2022/10/07 04:12:09;;;;;;;8.80;5.10;;;9.20;1.00;;;;;;5051869;28;20513;-59
2022/10/07 04:14:34;;;;;;;8.00;4.63;;;9.20;1.00;;;;;;5057829;28;20281;-59
2022/10/07 04:17:00;;;;;;;10.07;4.93;;;9.20;1.00;;;;;;5061738;28;20186;-58
2022/10/07 04:19:25;;;;;;;5.00;4.50;;;9.20;1.00;;;;;;5053986;28;20184;-60
2022/10/07 04:21:51;;;;;;;5.30;4.20;;;9.20;1.00;;;;;;5054086;28;20270;-59
2022/10/07 04:24:17;;;;;;;9.70;4.97;;;9.10;1.00;;;;;;5061956;28;20326;-59
2022/10/07 04:26:42;;;;;;;7.13;4.37;;;9.10;1.00;;;;;;5055037;28;20290;-59
2022/10/07 04:29:08;;;;;;;7.20;5.20;;;9.10;1.00;;;;;;5051323;28;20211;-59
2022/10/07 04:31:33;;;;;;;5.80;5.20;;;9.00;1.00;;;;;;5054867;28;20260;-59
2022/10/07 04:33:59;;;;;;;9.17;4.30;;;9.00;1.00;;;;;;5064802;28;20193;-59
2022/10/07 04:36:26;;;;;;;5.00;4.47;;;8.90;1.00;;;;;;5053834;28;20267;-59
2022/10/07 04:38:51;;;;;;;6.00;4.77;;;8.90;1.00;;;;;;5061759;28;20232;-56
2022/10/07 04:41:17;;;;;;;7.60;4.53;;;8.90;1.00;;;;;;5061768;28;20444;-59
2022/10/07 04:43:43;;;;;;;4.90;4.23;;;8.90;1.00;;;;;;5059343;28;20259;-59
2022/10/07 04:46:13;;;;;;;5.97;4.77;;;8.80;1.00;;;;;;5057053;28;20191;-59
2022/10/07 04:48:39;;;;;;;4.87;4.37;;;8.80;1.00;;;;;;5050864;28;20183;-58
2022/10/07 04:51:07;;;;;;;5.63;4.17;;;8.80;1.00;;;;;;5062842;28;20524;-59
2022/10/07 04:53:34;;;;;;;5.07;4.60;;;8.80;1.00;;;;;;5055369;28;20542;-58
2022/10/07 04:55:59;;;;;;;7.57;5.17;;;8.80;1.00;;;;;;5060887;28;21317;-59
2022/10/07 04:58:27;;;;;;;7.37;4.70;;;7.70;1.00;;;;;;5058968;28;20421;-59
2022/10/07 05:00:54;;;;;;;7.67;5.60;;;8.80;1.00;;;;;;5059712;28;20688;-59
2022/10/07 05:03:21;;;;;;;5.30;4.50;;;8.80;1.00;;;;;;5065666;28;20778;-59
2022/10/07 05:05:49;;;;;;;8.27;5.00;;;8.80;1.00;;;;;;5050592;28;20788;-59
2022/10/07 05:08:17;;;;;;;6.77;4.77;;;8.80;1.00;;;;;;5065135;28;20452;-59
2022/10/07 05:10:42;;;;;;;6.73;4.77;;;8.80;1.00;;;;;;5054007;28;20985;-59
2022/10/07 05:13:14;;;;;;;9.47;4.67;;;8.80;1.00;;;;;;5049810;28;20443;-59
2022/10/07 05:15:53;;;;;;;6.37;5.00;;;8.80;1.00;;;;;;5062183;28;20187;-59
2022/10/07 05:18:20;;;;;;;6.33;5.03;;;8.80;1.00;;;;;;5063153;28;20890;-59
2022/10/07 05:20:47;;;;;;;6.70;5.87;;;8.80;1.00;;;;;;5055885;28;20425;-59
2022/10/07 05:23:18;;;;;;;6.07;5.40;;;8.90;1.00;;;;;;5054474;28;20855;-58
2022/10/07 05:25:44;;;;;;;7.17;5.60;;;8.80;1.00;;;;;;5064909;28;20410;-58
2022/10/07 05:28:10;;;;;;;5.37;4.73;;;8.80;1.00;;;;;;5061148;28;20446;-60
2022/10/07 05:30:36;;;;;;;6.63;5.10;;;8.90;1.00;;;;;;5056725;28;20464;-59
2022/10/07 05:33:02;;;;;;;7.70;5.13;;;8.90;1.00;;;;;;5062667;28;20914;-59
2022/10/07 05:35:28;;;;;;;8.53;5.43;;;8.90;1.00;;;;;;5060528;28;20447;-59
2022/10/07 05:37:53;;;;;;;6.50;4.80;;;9.00;1.00;;;;;;5059587;28;20190;-59
2022/10/07 05:40:20;;;;;;;23.73;6.30;;;9.00;1.00;;;;;;5051833;28;20195;-58
2022/10/07 05:42:46;;;;;;;8.60;6.27;;;9.00;1.00;;;;;;5053126;28;20226;-59
2022/10/07 05:45:11;;;;;;;7.17;5.17;;;9.00;1.00;;;;;;5054479;28;20982;-58
2022/10/07 05:47:37;;;;;;;9.70;5.70;;;9.00;1.00;;;;;;5061962;28;20189;-59
2022/10/07 05:50:03;;;;;;;7.33;5.37;;;9.00;1.00;;;;;;5055580;28;20725;-59
2022/10/07 05:52:29;;;;;;;12.20;7.27;;;9.10;1.00;;;;;;5056983;28;20204;-58
2022/10/07 05:54:55;;;;;;;6.97;6.37;;;9.20;1.00;;;;;;5056938;28;20555;-59
2022/10/07 05:57:21;;;;;;;7.57;5.33;;;9.20;1.00;;;;;;5053842;28;20460;-60
2022/10/07 05:59:48;;;;;;;9.63;6.40;;;9.20;1.00;;;;;;5057941;28;20967;-59
2022/10/07 06:02:15;;;;;;;16.40;6.67;;;9.30;1.00;;;;;;5059163;28;20461;-59
2022/10/07 06:04:42;;;;;;;7.83;5.10;;;9.40;1.00;;;;;;5064746;28;20452;-58
2022/10/07 06:07:09;;;;;;;6.80;5.37;;;9.40;1.00;;;;;;5055199;28;20427;-59
2022/10/07 06:15:03;;;;;;;9.53;6.10;;;9.50;1.00;;;;;;5055771;28;20438;-59
2022/10/07 06:17:29;;;;;;;12.30;5.90;;;9.50;1.00;;;;;;5061819;28;20490;-59
2022/10/07 06:19:55;;;;;;;8.07;6.27;;;9.50;1.00;;;;;;5056996;28;20507;-59
2022/10/07 06:22:20;;;;;;;8.20;5.37;;;9.60;1.00;;;;;;5067353;28;20198;-60
2022/10/07 06:24:46;;;;;;;8.10;7.23;;;13.40;1.00;;;;;;5059237;28;20194;-58
2022/10/07 06:27:12;;;;;;;10.73;6.17;;;9.70;1.00;;;;;;5060539;28;20180;-59
2022/10/07 06:29:38;;;;;;;8.07;6.00;;;13.40;1.00;;;;;;5066131;28;20292;-59
2022/10/07 06:32:04;;;;;;;10.83;6.33;;;9.80;1.00;;;;;;5053278;28;20445;-58
2022/10/07 06:34:30;;;;;;;11.30;6.53;;;9.90;1.00;;;;;;5060415;28;20260;-59
2022/10/07 06:36:55;;;;;;;9.80;5.30;;;9.90;1.00;;;;;;5061873;28;20465;-58
2022/10/07 06:39:21;;;;;;;7.23;5.10;;;10.10;1.00;;;;;;5053998;28;20208;-58
2022/10/07 06:41:46;;;;;;;6.43;5.70;;;10.10;1.00;;;;;;5055817;28;20245;-59
2022/10/07 06:44:12;;;;;;;11.27;6.70;;;10.20;1.00;;;;;;5058320;28;20218;-59
2022/10/07 06:46:37;;;;;;;6.77;6.07;;;10.30;1.00;;;;;;5056984;28;20703;-59
2022/10/07 06:49:03;;;;;;;9.73;6.20;;;10.40;1.00;;;;;;5053887;28;20222;-59
2022/10/07 06:51:29;;;;;;;8.83;6.60;;;10.40;1.00;;;;;;5049626;28;20218;-59
2022/10/07 06:53:57;;;;;;;13.00;6.67;;;10.60;1.00;;;;;;5045309;28;20186;-59
2022/10/07 06:56:23;;;;;;;7.07;6.20;;;10.60;1.00;;;;;;5055269;28;20197;-60
2022/10/07 06:58:49;;;;;;;10.30;6.37;;;10.80;1.00;;;;;;5050758;28;20503;-59
2022/10/07 07:01:15;;;;;;;9.63;7.00;;;11.00;1.00;;;;;;5045696;28;20437;-60
2022/10/07 07:03:42;;;;;;;14.83;7.03;;;11.30;1.00;;;;;;5056669;28;20206;-59
2022/10/07 07:06:09;;;;;;;6.43;5.90;;;11.50;1.00;;;;;;5062869;28;20431;-60
2022/10/07 07:08:36;;;;;;;9.40;6.97;;;11.60;1.00;;;;;;5063417;28;20459;-59
2022/10/07 07:11:05;;;;;;;9.13;7.43;;;11.70;1.00;;;;;;5056011;28;21808;-60
2022/10/07 07:13:34;;;;;;;7.90;6.20;;;11.80;1.00;;;;;;5047249;28;20437;-59
2022/10/07 07:16:00;;;;;;;7.33;6.70;;;11.80;1.00;;;;;;5065151;28;20505;-59
2022/10/07 07:18:26;;;;;;;9.60;6.20;;;12.00;1.00;;;;;;5052918;28;21001;-59
2022/10/07 07:20:51;;;;;;;11.00;6.97;;;12.20;1.00;;;;;;5065184;28;20198;-60
2022/10/07 07:23:17;;;;;;;10.77;6.87;;;12.70;1.00;;;;;;5050959;28;20647;-60
2022/10/07 07:25:44;;;;;;;7.70;6.03;;;13.50;1.00;;;;;;5060513;28;20215;-60
2022/10/07 07:28:11;;;;;;;9.17;5.93;;;13.50;1.00;;;;;;5060880;28;20782;-60
2022/10/07 07:30:38;;;;;;;9.53;6.37;;;13.70;1.00;;;;;;5059207;28;20796;-60
2022/10/07 07:33:04;;;;;;;10.67;6.83;;;13.80;1.00;;;;;;5062586;28;20536;-59
2022/10/07 07:35:32;;;;;;;9.37;6.00;;;13.70;1.00;;;;;;5068900;28;20514;-60
2022/10/07 07:37:59;;;;;;;14.40;6.47;;;13.60;1.00;;;;;;5059854;28;20517;-59
2022/10/07 07:40:25;;;;;;;8.20;7.20;;;13.60;1.00;;;;;;5064849;28;20435;-59
2022/10/07 07:42:53;;;;;;;8.97;6.63;;;13.70;1.00;;;;;;5058579;28;20580;-59
2022/10/07 07:45:19;;;;;;;7.50;6.70;;;13.80;1.00;;;;;;5053184;28;20805;-59
2022/10/07 07:47:48;;;;;;;6.83;6.10;;;13.90;1.00;;;;;;5063012;28;20513;-59
2022/10/07 07:50:14;;;;;;;7.07;6.10;;;13.90;1.00;;;;;;5062463;28;20707;-59
2022/10/07 07:52:39;;;;;;;7.63;6.63;;;14.10;1.00;;;;;;5063745;28;20445;-59
2022/10/07 07:55:06;;;;;;;8.20;5.90;;;14.30;1.00;;;;;;5061226;28;20421;-59
2022/10/07 07:57:32;;;;;;;10.20;6.03;;;14.40;1.00;;;;;;5065768;28;20187;-59
2022/10/07 07:59:58;;;;;;;7.40;6.03;;;14.40;1.00;;;;;;5054160;28;20491;-60
2022/10/07 08:02:23;;;;;;;6.63;5.23;;;14.60;1.00;;;;;;5059497;28;20453;-59
2022/10/07 08:04:49;;;;;;;6.17;5.50;;;14.70;1.00;;;;;;5061142;28;20934;-59
2022/10/07 08:07:15;;;;;;;6.87;5.30;;;14.80;1.00;;;;;;5061444;28;20244;-59
2022/10/07 08:09:41;;;;;;;7.87;5.63;;;14.90;1.00;;;;;;5062948;28;20217;-59
2022/10/07 08:12:07;;;;;;;7.37;4.93;;;15.00;1.00;;;;;;5060845;28;20970;-60
2022/10/07 08:14:32;;;;;;;6.80;6.10;;;15.10;1.00;;;;;;5061589;28;20714;-60
2022/10/07 08:16:58;;;;;;;5.30;4.80;;;15.20;1.00;;;;;;5049095;28;20536;-60
2022/10/07 08:19:28;;;;;;;6.37;5.53;;;15.40;1.00;;;;;;5052044;28;20183;-61
2022/10/07 08:21:54;;;;;;;5.10;4.60;;;15.50;1.00;;;;;;5052783;28;20184;-61
2022/10/07 08:24:21;;;;;;;6.03;4.87;;;15.70;1.00;;;;;;5071842;28;20445;-59
2022/10/07 08:26:47;;;;;;;6.37;5.10;;;15.90;1.00;;;;;;5051124;28;20410;-61
2022/10/07 08:29:14;;;;;;;5.63;5.13;;;15.90;1.00;;;;;;5051019;28;20408;-59
2022/10/07 08:31:41;;;;;;;5.10;4.60;;;16.10;1.00;;;;;;5050683;28;20171;-60
2022/10/07 08:34:06;;;;;;;5.90;4.50;;;16.20;1.00;;;;;;5065860;28;20433;-61
2022/10/07 08:36:33;;;;;;;6.53;3.90;;;16.40;1.00;;;;;;5068964;28;20407;-60
2022/10/07 08:39:00;;;;;;;6.07;4.50;;;16.40;1.00;;;;;;5057391;28;20599;-60
2022/10/07 08:41:35;;;;;;;5.07;4.50;;;16.50;1.00;;;;;;5051211;28;20428;-61
2022/10/07 08:44:16;;;;;;;4.97;4.53;;;16.50;1.00;;;;;;5069809;28;21013;-60
2022/10/07 08:46:57;;;;;;;10.77;5.97;;;16.60;1.00;;;;;;5070615;28;20454;-61
2022/10/07 08:49:31;;;;;;;8.00;4.33;;;16.80;1.00;;;;;;5068846;28;20533;-61
2022/10/07 08:52:24;;;;;;;4.47;3.90;;;16.90;1.00;;;;;;5050580;28;20435;-61
2022/10/07 08:54:49;;;;;;;6.33;4.70;;;17.00;1.00;;;;;;5047742;28;20947;-60
2022/10/07 08:57:27;;;;;;;5.10;4.00;;;17.10;1.00;;;;;;5049719;28;20449;-58
2022/10/07 09:00:00;;;;;;;7.07;4.97;;;17.30;1.00;;;;;;5048011;28;20189;-61
2022/10/07 09:02:53;;;;;;;4.67;3.97;;;17.30;1.00;;;;;;5068286;28;20451;-59
2022/10/07 09:05:26;;;;;;;4.30;3.80;;;17.50;1.00;;;;;;5061721;28;20411;-59
2022/10/07 09:07:58;;;;;;;7.60;3.80;;;17.80;1.00;;;;;;5055251;28;20413;-60
2022/10/07 09:10:41;;;;;;;4.83;3.90;;;17.80;1.00;;;;;;5059210;28;20438;-60
2022/10/07 09:13:17;;;;;;;4.10;3.60;;;18.00;1.00;;;;;;5056879;28;20522;-60
2022/10/07 09:16:04;;;;;;;4.40;4.00;;;18.00;1.00;;;;;;5070005;28;20924;-59
2022/10/07 09:18:38;;;;;;;5.67;3.80;;;18.10;1.00;;;;;;5058855;28;20468;-59
2022/10/07 09:21:16;;;;;;;3.80;3.40;;;18.20;1.00;;;;;;5050087;28;20448;-61
2022/10/07 09:23:42;;;;;;;5.13;3.67;;;18.40;1.00;;;;;;5049272;28;20447;-61
2022/10/07 09:26:13;;;;;;;4.40;3.80;;;18.50;1.00;;;;;;5049905;28;20400;-61
2022/10/07 09:28:39;;;;;;;7.60;5.63;;;18.60;1.00;;;;;;5048375;28;20546;-59
2022/10/07 09:31:06;;;;;;;5.53;4.23;;;18.60;1.00;;;;;;5049801;28;20448;-61
2022/10/07 09:33:38;;;;;;;5.23;3.70;;;18.60;1.00;;;;;;5049767;28;20417;-60
2022/10/07 09:36:08;;;;;;;4.90;4.03;;;18.60;1.00;;;;;;5049808;28;20511;-60
2022/10/07 09:38:42;;;;;;;5.07;3.97;;;18.70;1.00;;;;;;5049924;28;20922;-61
2022/10/07 09:41:31;;;;;;;7.30;3.80;;;18.70;1.00;;;;;;5060912;28;20417;-61
2022/10/07 09:44:14;;;;;;;5.40;3.90;;;18.70;1.00;;;;;;5054013;28;20476;-60
2022/10/07 09:46:52;;;;;;;5.57;4.03;;;18.80;1.00;;;;;;5049821;28;20442;-60
2022/10/07 09:49:27;;;;;;;6.90;4.30;;;18.90;1.00;;;;;;5049887;28;20924;-61
2022/10/07 09:52:20;;;;;;;5.30;3.70;;;19.00;1.00;;;;;;5052851;28;20441;-61
2022/10/07 09:54:47;;;;;;;3.70;3.40;;;19.10;1.00;;;;;;5069650;28;20436;-60
2022/10/07 09:57:24;;;;;;;3.87;3.43;;;19.00;1.00;;;;;;5069825;28;20447;-61
2022/10/07 09:59:50;;;;;;;5.20;3.80;;;19.00;1.00;;;;;;5069484;28;20399;-61
2022/10/07 10:02:25;;;;;;;4.77;3.43;;;19.10;1.00;;;;;;5059470;28;20814;-60
2022/10/07 10:04:53;;;;;;;4.50;4.10;;;19.20;1.00;;;;;;5048620;28;20186;-61
2022/10/07 10:07:29;;;;;;;6.23;4.17;;;19.20;1.00;;;;;;5049399;28;20568;-61
2022/10/07 10:10:25;;;;;;;4.13;3.43;;;19.30;1.00;;;;;;5059469;28;20509;-62
2022/10/07 10:12:53;;;;;;;6.40;4.00;;;19.40;1.00;;;;;;5066905;28;20444;-61
2022/10/07 10:15:22;;;;;;;5.83;3.50;;;19.60;1.00;;;;;;5059377;28;20451;-61
2022/10/07 10:17:48;;;;;;;4.07;3.60;;;19.70;1.00;;;;;;5049402;28;20408;-61
2022/10/07 10:20:23;;;;;;;5.10;3.73;;;19.80;1.00;;;;;;5049522;28;20441;-60
2022/10/07 10:22:50;;;;;;;5.30;3.70;;;19.90;1.00;;;;;;5049325;28;20527;-60
2022/10/07 10:28:52;;;;;;;5.33;3.20;;;20.10;1.00;;;;;;5049536;28;20417;-62
2022/10/07 10:31:32;;;;;;;7.33;3.43;;;20.20;1.00;;;;;;5049279;28;20856;-61
2022/10/07 10:34:12;;;;;;;6.37;3.10;;;20.40;1.00;;;;;;5048908;28;20412;-60
2022/10/07 10:36:44;;;;;;;3.43;2.47;;;20.50;1.00;;;;;;5049365;28;20490;-61
2022/10/07 10:39:28;;;;;;;3.13;2.73;;;20.40;1.00;;;;;;5049497;28;20796;-61
2022/10/07 10:41:58;;;;;;;3.83;2.20;;;20.40;1.00;;;;;;5049172;28;20481;-60
2022/10/07 10:44:31;;;;;;;4.17;2.77;;;20.50;1.00;;;;;;5049450;28;20877;-60
2022/10/07 10:47:26;;;;;;;3.50;2.97;;;20.60;1.00;;;;;;5049017;28;20438;-60
2022/10/07 10:49:53;;;;;;;4.60;2.60;;;20.80;1.00;;;;;;5050682;28;20493;-61
2022/10/07 10:52:24;;;;;;;3.97;2.73;;;21.00;1.00;;;;;;5052981;28;20411;-62
2022/10/07 10:54:56;;;;;;;2.87;2.57;;;21.10;1.00;;;;;;5052363;28;20449;-61
2022/10/07 10:57:44;;;;;;;2.80;2.40;;;21.20;1.00;;;;;;5052336;28;20448;-60
2022/10/07 11:00:14;;;;;;;4.23;2.70;;;21.20;1.00;;;;;;5052550;28;20439;-61
2022/10/07 11:03:14;;;;;;;3.57;2.80;;;21.10;1.00;;;;;;5052639;28;20429;-61
2022/10/07 11:05:41;;;;;;;3.63;2.60;;;20.90;1.00;;;;;;5052787;28;20934;-60
2022/10/07 11:08:22;;;;;;;5.03;2.70;;;20.90;1.00;;;;;;5052286;28;20878;-60
2022/10/07 11:11:20;;;;;;;2.93;2.50;;;21.00;1.00;;;;;;5052159;28;20451;-60
2022/10/07 11:13:53;;;;;;;3.83;2.70;;;21.20;1.00;;;;;;5051285;28;20424;-60
2022/10/07 11:16:30;;;;;;;3.53;2.53;;;21.40;1.00;;;;;;5052272;28;20438;-61
2022/10/07 11:19:00;;;;;;;5.27;2.47;;;21.60;1.00;;;;;;5052008;28;20414;-60
2022/10/07 11:21:32;;;;;;;4.23;2.60;;;21.80;1.00;;;;;;5052156;28;20404;-61
2022/10/07 11:24:10;;;;;;;4.93;2.80;;;21.70;1.00;;;;;;5052319;28;20444;-60
2022/10/07 11:26:51;;;;;;;2.80;2.60;;;21.70;1.00;;;;;;5050980;28;20448;-61
2022/10/07 11:29:25;;;;;;;8.63;2.93;;;21.80;1.00;;;;;;5052325;28;21035;-60
2022/10/07 11:32:19;;;;;;;6.00;2.60;;;21.80;1.00;;;;;;5052307;28;20419;-60
2022/10/07 11:34:52;;;;;;;3.90;2.47;;;21.50;1.00;;;;;;5049788;28;20441;-61
2022/10/07 11:37:40;;;;;;;5.57;2.70;;;21.40;1.00;;;;;;5052188;28;20437;-61
2022/10/07 11:40:07;;;;;;;3.03;2.73;;;21.40;1.00;;;;;;5049148;28;20412;-62
2022/10/07 11:42:47;;;;;;;4.20;2.17;;;21.20;1.00;;;;;;5051590;28;20543;-61
2022/10/07 11:45:21;;;;;;;3.10;2.60;;;21.20;1.00;;;;;;5050424;28;20420;-60
2022/10/07 11:47:58;;;;;;;3.60;3.30;;;21.30;1.00;;;;;;5051929;28;20413;-61
2022/10/07 11:50:31;;;;;;;5.50;2.40;;;21.30;1.00;;;;;;5051514;28;20487;-61
2022/10/07 11:53:06;;;;;;;3.83;2.83;;;21.30;1.00;;;;;;5051848;28;20747;-60
2022/10/07 11:55:43;;;;;;;6.13;2.50;;;21.20;1.00;;;;;;5051798;28;20424;-61
2022/10/07 11:58:23;;;;;;;5.30;3.03;;;21.30;1.00;;;;;;5052193;28;21137;-60
2022/10/07 12:00:48;;;;;;;4.00;2.60;;;21.60;1.00;;;;;;5050623;28;20446;-61
2022/10/07 12:03:17;;;;;;;3.50;3.10;;;21.70;1.00;;;;;;5050930;28;20972;-60
2022/10/07 12:05:49;;;;;;;2.67;2.47;;;21.90;1.00;;;;;;5051014;28;20178;-61
2022/10/07 12:08:30;;;;;;;4.43;2.73;;;22.00;1.00;;;;;;5051303;28;20494;-59
2022/10/07 12:11:19;;;;;;;6.13;2.43;;;22.20;1.00;;;;;;5051419;28;20464;-61
2022/10/07 12:13:49;;;;;;;3.90;2.97;;;22.20;1.00;;;;;;5050830;28;20440;-61
2022/10/07 12:16:30;;;;;;;4.87;2.73;;;22.10;1.00;;;;;;5051321;28;20989;-60
2022/10/07 12:19:09;;;;;;;3.10;2.50;;;22.30;1.00;;;;;;5051396;28;20476;-61
2022/10/07 12:22:02;;;;;;;4.90;3.13;;;22.30;1.00;;;;;;5051148;28;20443;-61
2022/10/07 12:24:30;;;;;;;4.30;2.93;;;22.40;1.00;;;;;;5050983;28;20958;-61
2022/10/07 12:27:05;;;;;;;4.10;2.40;;;22.50;1.00;;;;;;5050295;28;20864;-60
2022/10/07 12:29:57;;;;;;;5.17;2.97;;;22.70;1.00;;;;;;5050831;28;20460;-60
2022/10/07 12:32:51;;;;;;;2.93;2.63;;;22.70;1.00;;;;;;5050392;28;20506;-61
2022/10/07 12:35:33;;;;;;;4.23;3.03;;;22.90;1.00;;;;;;5048222;28;20507;-62
2022/10/07 12:38:22;;;;;;;3.80;3.00;;;23.00;1.00;;;;;;5051103;28;20937;-61
2022/10/07 12:41:01;;;;;;;4.00;2.30;;;23.10;1.00;;;;;;5050748;28;20516;-60
2022/10/07 12:43:36;;;;;;;3.60;3.30;;;23.10;1.00;;;;;;5050837;28;20447;-59
2022/10/07 12:46:10;;;;;;;4.90;3.13;;;22.90;1.00;;;;;;5050672;28;20470;-61
2022/10/07 12:48:44;;;;;;;3.80;3.33;;;22.70;1.00;;;;;;5050769;28;20432;-60
2022/10/07 12:51:20;;;;;;;6.80;3.17;;;22.80;1.00;;;;;;5050743;28;20545;-60
2022/10/07 12:53:47;;;;;;;7.20;3.30;;;22.80;1.00;;;;;;5050229;28;20439;-61
2022/10/07 12:56:26;;;;;;;3.73;3.17;;;22.50;1.00;;;;;;5050140;28;20437;-61
2022/10/07 13:02:34;;;;;;;3.40;3.10;;;22.20;1.00;;;;;;5050856;28;20559;-60
2022/10/07 13:05:42;;;;;;;4.90;2.60;;;22.30;1.00;;;;;;5048262;28;20446;-61
2022/10/07 13:08:43;;;;;;;4.80;2.97;;;22.30;1.00;;;;;;5048926;28;20467;-60
2022/10/07 13:11:24;;;;;;;3.20;2.70;;;22.30;1.00;;;;;;5026936;28;21052;-60
2022/10/07 13:13:58;;;;;;;4.17;3.10;;;22.20;1.00;;;;;;5043341;28;20525;-60
2022/10/07 13:16:56;;;;;;;5.37;3.37;;;21.90;1.00;;;;;;5050250;28;20452;-61
2022/10/07 13:19:35;;;;;;;4.73;3.90;;;21.90;1.00;;;;;;5049623;28;20414;-61
2022/10/07 13:22:11;;;;;;;4.90;3.20;;;21.80;1.00;;;;;;5050210;28;20427;-60
2022/10/07 13:24:52;;;;;;;3.60;2.93;;;21.80;1.00;;;;;;5049908;28;20502;-61
2022/10/07 13:27:27;;;;;;;5.93;3.20;;;21.80;1.00;;;;;;5049371;28;20460;-61
2022/10/07 13:29:54;;;;;;;2.83;2.50;;;21.80;1.00;;;;;;5049861;28;20778;-60
2022/10/07 13:32:29;;;;;;;2.70;2.50;;;21.80;1.00;;;;;;5050155;28;20404;-60
2022/10/07 13:34:56;;;;;;;5.20;3.43;;;21.90;1.00;;;;;;5049644;28;20445;-61
2022/10/07 13:37:30;;;;;;;2.90;2.50;;;21.90;1.00;;;;;;5049684;28;20410;-61